Cape Elizabeth, ME

7:50 AM EST on February 24, 2017 (GMT -0500)
M44007 | | Change Station

Elev 0 ft 43.50 °N, 70.10 °W | Updated 3 minutes ago

Shallow Fog
Shallow Fog
42.0 °F
Feels Like 37 °F
N
9.0
Wind Variable Wind from SSW
Gusts 11.0 mph

Today
High -- | Low -- °F
--% Chance of Precip.
Yesterday
High -- | Low -- °F
Precip. -- in
Pressure 29.91 in
Visibility 10.0 miles
Clouds Scattered Clouds 15000 ft
Scattered Clouds 25000 ft
Windchill 37 °F
Dew Point 41.0 °F
Humidity 95%
Rainfall in
Snow Depth Not available.
6:24 AM 5:23 PM
Waning Crescent, 5% visible
METAR KPWM 241151Z 00000KT 10SM MIFG SCT150 SCT250 04/04 A2990 RMK AO2 SLP126 T00440044 10100 20039 51014
Pressure 29.91 in
Visibility 10.0 miles
Clouds Scattered Clouds 15000 ft
Scattered Clouds 25000 ft
Windchill 37 °F
Dew Point 41.0 °F
Humidity 95%
Rainfall in
Snow Depth Not available.
6:24 AM 5:23 PM
Waning Crescent, 5% visible
METAR KPWM 241151Z 00000KT 10SM MIFG SCT150 SCT250 04/04 A2990 RMK AO2 SLP126 T00440044 10100 20039 51014

Get Your Daily Forecast Email!

Thanks for signing up!

Be on the lookout for a verification email in your inbox.

You'll start receiving the daily forecast at 8 AM.

×

10-Day Weather Forecast

Almanac

Astronomy

Feb. 24, 2017 Rise Set
Actual Time
Civil Twilight
Nautical Twilight
Astronomical Twilight
Moon
Length of Visible Light
Length of Day
Tomorrow will be .
, % of the Moon is Illuminated

Today's Extremes

State Highs State Lows

Community

WunderPhotos

Upload Photos

1,962,540 photos uploaded!

WunderBlog® & News

Nearby

Air Quality

  Air Quality AQ Index Pollutant
Not available.

Snow Depth

Station Depth Elevation

Earthquake Activity

City Distance Mag. Time & Date
Minimum magnitude displayed is 2.5.

Coastal Water Temperatures

Place Temperature

Stations

Nearby Weather Stations

Station Location Temp. Windchill Dew Point Humidity Wind Precip. Elev Updated Type
                   

Watches & Warnings

There are currently no watches in effect.